logo
Rechercher aéroport 
image banner adimage banner adimage banner ad
image banner ad

ZYCC - Changchun/Longjia

Situé à Changchun, China

ICAO - ZYCC, IATA - CGQ

Données fournies par Airmate  

Information générale

Coordonnées: N43°59'54" E125°41'18"
Élévation : 705 feet MSL.
 
Voir autres Aéroports à Jilin Province

Données opérationnelles

Special qualification required
Heure actuelle UTC:
Heure actuelle locale:
Météo
TAF: TAF ZYCC 200903Z 2012/2112 16004MPS 5000 BR FEW030 TX27/2106Z TN09/2021Z BECMG 2103/2104 21008G15MPS
Voir NOTAMs / SUP AIP / TFR affectant cet aéroport [VIEW]
Fréquences de communication: [VIEW]

Pistes:

Identifiant RWYQFULongueur (ft)Largeur (ft)SurfaceLDA (ft)
0649°10499148CON
24229°10499148CON

Coordonnées de l'aéroport

Adresse: Changchun China

Vue satellite de ZYCC